createdAt,value
2019-03-28T00:01:12.805Z,96.80
2019-03-28T00:03:43.180Z,96.40
2019-03-28T00:06:13.576Z,96.60
2019-03-28T00:08:43.863Z,97.10
2019-03-28T00:11:14.330Z,97.60
2019-03-28T00:13:44.800Z,96.80
2019-03-28T00:16:15.172Z,95.70
2019-03-28T00:18:46.025Z,95.80
2019-03-28T00:21:16.414Z,96.40
2019-03-28T00:24:18.356Z,95.90
2019-03-28T00:26:48.799Z,96.00
2019-03-28T00:29:19.213Z,95.40
2019-03-28T00:31:50.554Z,94.50
2019-03-28T00:34:21.016Z,94.30
2019-03-28T00:36:51.591Z,94.70
2019-03-28T00:39:22.059Z,94.60
2019-03-28T00:41:52.616Z,94.80
2019-03-28T00:44:23.013Z,94.60
2019-03-28T00:46:53.504Z,95.20
2019-03-28T00:49:23.960Z,95.70
2019-03-28T00:51:54.725Z,95.90
2019-03-28T00:54:25.484Z,95.60
2019-03-28T00:56:56.396Z,95.90
2019-03-28T00:59:27.320Z,96.50
2019-03-28T01:01:57.841Z,96.40
2019-03-28T01:04:28.286Z,95.40
2019-03-28T01:06:59.615Z,95.70
2019-03-28T01:09:30.114Z,95.60
2019-03-28T01:12:00.575Z,95.70
2019-03-28T01:14:31.047Z,95.50
2019-03-28T01:17:01.345Z,95.70
2019-03-28T01:19:31.909Z,96.10
2019-03-28T01:22:02.471Z,96.40
2019-03-28T01:24:32.828Z,96.60
2019-03-28T01:27:03.336Z,96.30
2019-03-28T01:29:34.541Z,96.50
2019-03-28T01:32:04.957Z,96.40
2019-03-28T01:34:35.323Z,96.20
2019-03-28T01:37:05.902Z,96.20
2019-03-28T01:39:36.402Z,96.30
2019-03-28T01:42:06.936Z,96.50
2019-03-28T01:44:37.534Z,96.30
2019-03-28T01:47:08.884Z,96.10
2019-03-28T01:49:39.271Z,96.20
2019-03-28T01:52:09.903Z,95.90
2019-03-28T01:54:40.292Z,95.90
2019-03-28T01:57:12.159Z,95.90
2019-03-28T01:59:42.972Z,95.80
2019-03-28T02:02:13.743Z,95.50
2019-03-28T02:04:44.103Z,95.40
2019-03-28T02:07:14.910Z,95.40
2019-03-28T02:09:45.586Z,95.70
2019-03-28T02:12:16.083Z,95.80
2019-03-28T02:14:47.051Z,95.70
2019-03-28T02:17:17.441Z,95.80
2019-03-28T02:19:47.912Z,95.60
2019-03-28T02:22:18.402Z,95.90
2019-03-28T02:24:49.960Z,95.90
2019-03-28T02:27:24.354Z,95.90
2019-03-28T02:29:53.660Z,96.00
2019-03-28T02:32:24.465Z,96.20
2019-03-28T02:34:54.967Z,96.00
2019-03-28T02:37:25.398Z,96.00
2019-03-28T02:39:56.830Z,96.70
2019-03-28T02:42:27.934Z,96.60
2019-03-28T02:44:58.585Z,96.40
2019-03-28T02:47:29.116Z,96.40
2019-03-28T02:49:59.584Z,96.50
2019-03-28T02:52:30.189Z,96.30
2019-03-28T02:55:00.764Z,96.00
2019-03-28T02:57:41.077Z,95.80
2019-03-28T03:00:03.422Z,95.60
2019-03-28T03:02:34.411Z,95.50
2019-03-28T03:05:05.039Z,95.30
2019-03-28T03:07:35.559Z,95.30
2019-03-28T03:10:06.666Z,95.30
2019-03-28T03:12:37.253Z,95.10
2019-03-28T03:15:08.109Z,94.90
2019-03-28T03:17:38.993Z,95.10
2019-03-28T03:20:09.845Z,95.10
2019-03-28T03:22:40.343Z,95.10
2019-03-28T03:25:10.810Z,95.30
2019-03-28T03:27:56.792Z,95.20
2019-03-28T03:30:13.591Z,95.10
2019-03-28T03:32:44.245Z,94.90
2019-03-28T03:35:15.824Z,95.00
2019-03-28T03:37:46.339Z,95.20
2019-03-28T03:40:16.906Z,95.90
2019-03-28T03:42:47.305Z,95.40
2019-03-28T03:45:17.685Z,95.40
2019-03-28T03:47:48.103Z,96.40
2019-03-28T03:50:27.601Z,97.30
2019-03-28T03:52:58.083Z,96.80
2019-03-28T03:55:28.863Z,97.10
2019-03-28T03:58:14.468Z,96.50
2019-03-28T04:00:34.008Z,97.20
2019-03-28T04:03:05.257Z,97.60
2019-03-28T04:05:35.653Z,97.70
2019-03-28T04:08:06.220Z,98.00
2019-03-28T04:10:37.086Z,98.50
2019-03-28T04:13:07.965Z,98.60
2019-03-28T04:15:38.539Z,98.00
2019-03-28T04:18:08.865Z,98.70
2019-03-28T04:20:39.313Z,98.10
2019-03-28T04:23:09.849Z,98.70
2019-03-28T04:25:40.315Z,98.50
2019-03-28T04:28:10.826Z,98.80
2019-03-28T04:30:41.227Z,99.10
2019-03-28T04:33:12.463Z,99.00
2019-03-28T04:35:42.871Z,99.60
2019-03-28T04:38:13.577Z,99.40
2019-03-28T04:40:43.927Z,99.50
2019-03-28T04:43:14.266Z,99.50
2019-03-28T04:45:44.602Z,99.90
2019-03-28T04:48:15.049Z,99.90
2019-03-28T04:50:45.526Z,99.90
2019-03-28T04:53:15.786Z,99.90
2019-03-28T04:55:46.322Z,99.90
2019-03-28T04:58:21.579Z,99.90
2019-03-28T05:00:51.092Z,99.60
2019-03-28T05:03:21.606Z,99.20
2019-03-28T05:05:52.095Z,99.90
2019-03-28T05:08:22.552Z,99.90
2019-03-28T05:10:53.110Z,99.90
2019-03-28T05:13:23.605Z,99.90
2019-03-28T05:15:53.979Z,99.90
2019-03-28T05:18:24.762Z,99.90
2019-03-28T05:20:55.530Z,99.90
2019-03-28T05:23:26.634Z,99.90
2019-03-28T05:25:57.016Z,99.90
2019-03-28T05:29:01.480Z,99.90
2019-03-28T05:31:31.928Z,99.90
2019-03-28T05:34:02.407Z,99.90
2019-03-28T05:36:32.873Z,99.90
2019-03-28T05:39:04.121Z,99.90
2019-03-28T05:41:34.922Z,99.90
2019-03-28T05:44:05.399Z,99.90
2019-03-28T05:46:35.814Z,99.90
2019-03-28T05:49:06.156Z,99.90
2019-03-28T05:51:37.624Z,99.90
2019-03-28T05:54:08.412Z,99.90
2019-03-28T05:56:38.926Z,99.90
2019-03-28T05:59:11.233Z,99.80
2019-03-28T06:01:42.014Z,99.70
2019-03-28T06:04:12.740Z,99.60
2019-03-28T06:06:43.202Z,99.90
2019-03-28T06:09:13.728Z,99.60
2019-03-28T06:11:44.498Z,99.20
2019-03-28T06:14:15.262Z,98.50
2019-03-28T06:16:45.949Z,99.20
2019-03-28T06:19:16.240Z,99.00
2019-03-28T06:21:47.473Z,99.40
2019-03-28T06:24:18.325Z,99.90
2019-03-28T06:26:50.122Z,99.40
2019-03-28T06:29:24.032Z,99.90
2019-03-28T06:31:55.633Z,99.40
2019-03-28T06:34:26.445Z,99.10
2019-03-28T06:36:57.207Z,98.60
2019-03-28T06:39:27.687Z,98.40
2019-03-28T06:41:58.392Z,98.40
2019-03-28T06:44:29.441Z,98.20
2019-03-28T06:46:59.876Z,98.00
2019-03-28T06:49:30.259Z,97.20
2019-03-28T06:52:00.790Z,97.60
2019-03-28T06:54:31.339Z,97.00
2019-03-28T06:57:01.741Z,96.50
2019-03-28T06:59:37.656Z,96.40
2019-03-28T07:02:04.307Z,96.60
2019-03-28T07:04:34.739Z,96.70
2019-03-28T07:07:05.056Z,97.00
2019-03-28T07:09:35.408Z,96.70
2019-03-28T07:12:05.942Z,96.90
2019-03-28T07:14:36.363Z,97.10
2019-03-28T07:17:06.776Z,96.80
2019-03-28T07:19:37.516Z,97.40
2019-03-28T07:22:07.927Z,96.70
2019-03-28T07:24:38.389Z,96.80
2019-03-28T07:27:08.935Z,96.90
2019-03-28T07:29:50.322Z,96.30
2019-03-28T07:32:12.066Z,96.40
2019-03-28T07:34:42.537Z,96.10
2019-03-28T07:37:12.842Z,94.30
2019-03-28T07:39:43.609Z,94.60
2019-03-28T07:42:13.920Z,93.90
2019-03-28T07:44:44.458Z,94.70
2019-03-28T07:47:16.015Z,95.00
2019-03-28T07:49:46.503Z,95.10
2019-03-28T07:52:19.885Z,93.90
2019-03-28T07:54:49.404Z,93.80
2019-03-28T07:57:19.815Z,93.60
2019-03-28T08:00:03.270Z,94.10
2019-03-28T08:02:22.437Z,94.20
2019-03-28T08:04:52.815Z,93.80
2019-03-28T08:07:23.547Z,92.70
2019-03-28T08:09:53.901Z,92.80
2019-03-28T08:12:24.297Z,92.90
2019-03-28T08:14:54.779Z,92.30
2019-03-28T08:17:25.376Z,91.20
2019-03-28T08:19:55.746Z,90.90
2019-03-28T08:22:29.501Z,90.40
2019-03-28T08:24:58.709Z,91.50
2019-03-28T08:27:29.175Z,91.20
2019-03-28T08:30:00.192Z,91.10
2019-03-28T08:32:31.086Z,90.70
2019-03-28T08:35:01.447Z,90.80
2019-03-28T08:37:32.947Z,90.00
2019-03-28T08:40:03.583Z,89.50
2019-03-28T08:42:34.008Z,88.30
2019-03-28T08:45:05.305Z,86.60
2019-03-28T08:47:35.710Z,85.30
2019-03-28T08:50:06.867Z,83.80
2019-03-28T08:52:38.404Z,82.80
2019-03-28T08:55:10.089Z,82.10
2019-03-28T08:57:41.316Z,79.60
2019-03-28T09:00:12.230Z,81.50
2019-03-28T09:02:42.585Z,79.90
2019-03-28T09:05:13.258Z,77.70
2019-03-28T09:07:44.074Z,76.10
2019-03-28T09:10:14.531Z,74.70
2019-03-28T09:12:45.524Z,74.20
2019-03-28T09:15:16.765Z,73.20
2019-03-28T09:17:48.396Z,75.50
2019-03-28T09:20:19.020Z,78.30
2019-03-28T09:22:49.558Z,77.60
2019-03-28T09:25:20.024Z,78.10
2019-03-28T09:27:51.784Z,74.10
2019-03-28T09:30:48.613Z,72.30
2019-03-28T09:33:14.693Z,72.10
2019-03-28T09:35:45.509Z,72.30
2019-03-28T09:38:16.345Z,69.60
2019-03-28T09:40:46.860Z,66.20
2019-03-28T09:43:17.525Z,71.70
2019-03-28T09:45:48.075Z,69.60
2019-03-28T09:48:18.521Z,71.70
2019-03-28T09:50:49.084Z,70.70
2019-03-28T09:53:19.480Z,69.70
2019-03-28T09:55:49.813Z,67.40
2019-03-28T09:58:20.413Z,66.60
2019-03-28T10:01:02.244Z,66.50
2019-03-28T10:03:23.810Z,63.20
2019-03-28T10:05:54.644Z,63.70
2019-03-28T10:08:25.059Z,65.50
2019-03-28T10:10:55.500Z,63.60
2019-03-28T10:13:25.881Z,64.10
2019-03-28T10:15:57.478Z,57.70
2019-03-28T10:18:30.094Z,59.10
2019-03-28T10:21:00.259Z,61.70
2019-03-28T10:23:30.740Z,62.80
2019-03-28T10:26:02.212Z,63.30
2019-03-28T10:28:32.979Z,62.00
2019-03-28T10:31:15.915Z,62.10
2019-03-28T10:33:35.835Z,62.50
2019-03-28T10:36:06.154Z,58.00
2019-03-28T10:38:36.560Z,58.80
2019-03-28T10:41:07.050Z,58.70
2019-03-28T10:43:37.569Z,61.60
2019-03-28T10:46:08.191Z,60.20
2019-03-28T10:48:38.726Z,57.10
2019-03-28T10:51:09.251Z,57.80
2019-03-28T10:53:40.065Z,57.70
2019-03-28T10:56:20.889Z,59.70
2019-03-28T10:58:42.610Z,59.60
2019-03-28T11:01:16.523Z,61.10
2019-03-28T11:03:46.031Z,59.80
2019-03-28T11:06:16.524Z,62.50
2019-03-28T11:08:46.995Z,61.10
2019-03-28T11:11:17.519Z,61.20
2019-03-28T11:13:48.784Z,63.50
2019-03-28T11:16:19.582Z,62.90
2019-03-28T11:18:50.148Z,62.50
2019-03-28T11:21:20.774Z,63.20
2019-03-28T11:23:51.516Z,65.30
2019-03-28T11:26:22.028Z,63.80
2019-03-28T11:28:52.851Z,63.10
2019-03-28T11:31:23.782Z,64.10
2019-03-28T11:33:55.130Z,63.40
2019-03-28T11:36:25.769Z,64.10
2019-03-28T11:38:56.524Z,61.40
2019-03-28T11:41:27.626Z,61.40
2019-03-28T11:43:58.441Z,60.40
2019-03-28T11:46:28.975Z,61.60
2019-03-28T11:49:00.257Z,62.60
2019-03-28T11:51:30.820Z,63.20
2019-03-28T11:54:02.287Z,61.30
2019-03-28T11:56:32.727Z,62.50
2019-03-28T11:59:04.636Z,61.40
2019-03-28T12:01:35.205Z,61.10
2019-03-28T12:04:05.907Z,62.70
2019-03-28T12:06:36.217Z,62.30
2019-03-28T12:09:08.186Z,62.00
2019-03-28T12:11:39.024Z,62.30
2019-03-28T12:14:09.307Z,61.50
2019-03-28T12:16:40.703Z,64.00
2019-03-28T12:19:11.140Z,62.50
2019-03-28T12:21:41.660Z,61.70
2019-03-28T12:24:12.179Z,62.50
2019-03-28T12:26:42.591Z,63.00
2019-03-28T12:29:13.458Z,61.40
2019-03-28T12:31:44.068Z,63.40
2019-03-28T12:34:14.459Z,63.70
2019-03-28T12:36:44.890Z,63.90
2019-03-28T12:39:15.899Z,63.20
2019-03-28T12:41:46.199Z,65.60
2019-03-28T12:44:16.753Z,65.60
2019-03-28T12:46:47.371Z,64.50
2019-03-28T12:49:17.939Z,65.90
2019-03-28T12:51:48.439Z,63.40
2019-03-28T12:54:18.846Z,63.60
2019-03-28T12:56:49.372Z,62.90
2019-03-28T12:59:19.724Z,63.40
2019-03-28T13:01:50.035Z,64.30
2019-03-28T13:04:20.452Z,63.10
2019-03-28T13:06:50.897Z,64.40
2019-03-28T13:09:21.656Z,65.00
2019-03-28T13:11:52.031Z,64.80
2019-03-28T13:14:22.767Z,64.40
2019-03-28T13:16:53.254Z,64.70
2019-03-28T13:19:23.710Z,63.60
2019-03-28T13:21:54.263Z,64.50
2019-03-28T13:24:24.757Z,66.00
2019-03-28T13:26:55.253Z,65.10
2019-03-28T13:29:25.912Z,64.30
2019-03-28T13:31:56.275Z,65.60
2019-03-28T13:34:26.945Z,65.00
2019-03-28T13:36:57.539Z,66.00
2019-03-28T13:39:28.435Z,64.70
2019-03-28T13:41:58.828Z,64.80
2019-03-28T13:44:30.330Z,63.00
2019-03-28T13:47:00.756Z,63.00
2019-03-28T13:49:31.142Z,64.70
2019-03-28T13:52:01.665Z,62.70
2019-03-28T13:54:32.079Z,62.00
2019-03-28T13:57:02.524Z,61.80
2019-03-28T13:59:35.383Z,62.20
2019-03-28T14:02:06.891Z,63.50
2019-03-28T14:04:37.223Z,65.20
2019-03-28T14:07:07.691Z,63.60
2019-03-28T14:09:38.203Z,62.10
2019-03-28T14:12:09.009Z,64.10
2019-03-28T14:14:40.082Z,63.70
2019-03-28T14:17:10.719Z,65.20
2019-03-28T14:19:41.279Z,64.60
2019-03-28T14:22:11.691Z,63.90
2019-03-28T14:24:42.232Z,64.60
2019-03-28T14:27:13.698Z,64.90
2019-03-28T14:29:44.471Z,65.40
2019-03-28T14:32:14.890Z,65.10
2019-03-28T14:34:45.594Z,63.70
2019-03-28T14:37:17.231Z,65.50
2019-03-28T14:39:49.365Z,67.20
2019-03-28T14:42:20.201Z,66.10
2019-03-28T14:44:50.725Z,67.90
2019-03-28T14:47:21.122Z,65.40
2019-03-28T14:49:51.908Z,65.20
2019-03-28T14:52:23.670Z,66.60
2019-03-28T14:54:54.143Z,67.30
2019-03-28T14:57:24.800Z,67.80
2019-03-28T14:59:57.163Z,66.50
2019-03-28T15:02:27.643Z,62.70
2019-03-28T15:04:58.435Z,65.40
2019-03-28T15:07:29.429Z,63.40
2019-03-28T15:09:59.890Z,65.90
2019-03-28T15:12:30.390Z,67.00
2019-03-28T15:15:00.795Z,65.80
2019-03-28T15:17:31.095Z,64.30
2019-03-28T15:20:01.954Z,62.50
2019-03-28T15:22:32.398Z,64.70
2019-03-28T15:25:02.799Z,65.50
2019-03-28T15:27:33.625Z,64.00
2019-03-28T15:30:04.335Z,63.00
2019-03-28T15:32:35.509Z,64.70
2019-03-28T15:35:06.178Z,64.20
2019-03-28T15:37:36.578Z,65.70
2019-03-28T15:40:08.721Z,65.10
2019-03-28T15:42:39.367Z,66.40
2019-03-28T15:45:09.934Z,65.70
2019-03-28T15:47:40.403Z,66.50
2019-03-28T15:50:11.099Z,66.50
2019-03-28T15:52:41.996Z,66.60
2019-03-28T15:55:14.731Z,65.70
2019-03-28T15:57:44.591Z,66.90
2019-03-28T16:00:15.478Z,67.10
2019-03-28T16:02:45.762Z,67.90
2019-03-28T16:05:16.602Z,68.20
2019-03-28T16:07:47.049Z,67.80
2019-03-28T16:10:18.818Z,68.50
2019-03-28T16:12:49.229Z,69.10
2019-03-28T16:15:19.962Z,66.20
2019-03-28T16:17:50.778Z,68.00
2019-03-28T16:20:21.291Z,68.30
2019-03-28T16:22:51.760Z,69.90
2019-03-28T16:25:23.230Z,68.30
2019-03-28T16:27:53.547Z,68.30
2019-03-28T16:30:35.784Z,68.50
2019-03-28T16:33:06.749Z,68.90
2019-03-28T16:35:37.331Z,66.80
2019-03-28T16:38:08.108Z,68.50
2019-03-28T16:40:38.438Z,67.30
2019-03-28T16:43:08.985Z,68.10
2019-03-28T16:45:39.627Z,67.50
2019-03-28T16:48:10.270Z,67.20
2019-03-28T16:50:41.119Z,69.70
2019-03-28T16:53:11.679Z,70.10
2019-03-28T16:55:42.307Z,69.80
2019-03-28T16:58:13.045Z,68.80
2019-03-28T17:00:43.710Z,68.00
2019-03-28T17:03:14.046Z,68.10
2019-03-28T17:05:47.166Z,68.30
2019-03-28T17:08:17.799Z,70.00
2019-03-28T17:10:51.457Z,70.90
2019-03-28T17:13:22.050Z,71.30
2019-03-28T17:15:52.853Z,71.70
2019-03-28T17:18:23.358Z,71.20
2019-03-28T17:20:54.174Z,71.30
2019-03-28T17:23:24.631Z,72.20
2019-03-28T17:25:55.128Z,73.30
2019-03-28T17:28:26.798Z,72.70
2019-03-28T17:30:57.306Z,70.20
2019-03-28T17:33:27.660Z,69.80
2019-03-28T17:35:58.163Z,71.60
2019-03-28T17:38:28.882Z,72.10
2019-03-28T17:40:59.207Z,72.00
2019-03-28T17:43:29.625Z,70.50
2019-03-28T17:46:00.092Z,71.40
2019-03-28T17:48:30.984Z,71.20
2019-03-28T17:51:01.726Z,71.90
2019-03-28T17:53:32.229Z,72.20
2019-03-28T17:56:02.827Z,72.10
2019-03-28T17:58:33.290Z,72.60
2019-03-28T18:01:04.158Z,72.00
2019-03-28T18:03:34.822Z,71.80
2019-03-28T18:06:05.299Z,71.10
2019-03-28T18:08:35.850Z,70.60
2019-03-28T18:11:06.291Z,70.60
2019-03-28T18:13:36.670Z,71.20
2019-03-28T18:16:07.693Z,72.30
2019-03-28T18:18:38.265Z,72.70
2019-03-28T18:21:08.640Z,71.00
2019-03-28T18:23:39.063Z,71.50
2019-03-28T18:26:09.638Z,69.50
2019-03-28T18:28:40.491Z,70.20
2019-03-28T18:31:11.692Z,70.70
2019-03-28T18:33:42.523Z,69.30
2019-03-28T18:36:12.947Z,69.90
2019-03-28T18:38:43.642Z,71.50
2019-03-28T18:41:14.345Z,71.20
2019-03-28T18:43:44.810Z,71.30
2019-03-28T18:46:15.225Z,71.10
2019-03-28T18:48:46.612Z,71.70
2019-03-28T18:51:17.603Z,72.70
2019-03-28T18:53:48.354Z,72.90
2019-03-28T18:56:18.834Z,72.70
2019-03-28T18:58:49.266Z,73.20
2019-03-28T19:01:19.984Z,73.70
2019-03-28T19:03:50.874Z,73.90
2019-03-28T19:06:21.469Z,75.10
2019-03-28T19:08:51.891Z,75.40
2019-03-28T19:11:22.607Z,75.80
2019-03-28T19:13:53.659Z,76.40
2019-03-28T19:16:24.082Z,75.90
2019-03-28T19:18:54.512Z,75.80
2019-03-28T19:21:25.258Z,76.10
2019-03-28T19:23:55.763Z,75.50
2019-03-28T19:26:26.140Z,74.90
2019-03-28T19:28:57.218Z,75.60
2019-03-28T19:31:27.598Z,75.70
2019-03-28T19:33:58.112Z,75.40
2019-03-28T19:36:29.572Z,75.60
2019-03-28T19:39:00.263Z,76.20
2019-03-28T19:41:30.991Z,77.30
2019-03-28T19:44:02.883Z,77.50
2019-03-28T19:46:33.276Z,77.90
2019-03-28T19:49:03.768Z,78.40
2019-03-28T19:51:34.286Z,78.30
2019-03-28T19:54:05.348Z,78.00
2019-03-28T19:56:35.988Z,77.50
2019-03-28T19:59:07.010Z,77.20
2019-03-28T20:01:37.659Z,77.60
2019-03-28T20:04:08.962Z,79.00
2019-03-28T20:06:39.513Z,78.30
2019-03-28T20:09:16.503Z,78.50
2019-03-28T20:11:42.995Z,78.40
2019-03-28T20:14:13.545Z,77.70
2019-03-28T20:16:44.197Z,78.00
2019-03-28T20:19:17.731Z,78.70
2019-03-28T20:21:47.454Z,76.90
2019-03-28T20:24:17.987Z,76.20
2019-03-28T20:26:48.610Z,75.50
2019-03-28T20:29:19.445Z,75.50
2019-03-28T20:31:50.098Z,76.30
2019-03-28T20:34:20.596Z,75.60
2019-03-28T20:36:52.862Z,75.00
2019-03-28T20:39:23.930Z,75.40
2019-03-28T20:41:54.315Z,75.00
2019-03-28T20:44:24.857Z,75.40
2019-03-28T20:46:58.723Z,74.90
2019-03-28T20:49:27.822Z,74.20
2019-03-28T20:51:58.384Z,74.40
2019-03-28T20:54:28.897Z,74.30
2019-03-28T20:56:59.739Z,73.10
2019-03-28T20:59:30.294Z,73.50
2019-03-28T21:02:01.261Z,74.40
2019-03-28T21:04:32.108Z,73.50
2019-03-28T21:07:02.998Z,73.70
2019-03-28T21:09:33.377Z,75.10
2019-03-28T21:12:03.816Z,75.50
2019-03-28T21:14:34.244Z,75.80
2019-03-28T21:17:05.236Z,76.50
2019-03-28T21:19:35.890Z,76.00
2019-03-28T21:22:06.371Z,78.10
2019-03-28T21:24:36.776Z,77.20
2019-03-28T21:27:07.338Z,75.70
2019-03-28T21:29:48.305Z,76.10
2019-03-28T21:32:10.877Z,77.00
2019-03-28T21:34:41.370Z,75.10
2019-03-28T21:37:12.398Z,75.90
2019-03-28T21:39:42.842Z,74.50
2019-03-28T21:42:13.230Z,75.60
2019-03-28T21:44:44.113Z,77.80
2019-03-28T21:47:14.578Z,78.50
2019-03-28T21:49:44.997Z,78.30
2019-03-28T21:52:15.439Z,77.70
2019-03-28T21:54:46.118Z,77.30
2019-03-28T21:57:16.474Z,77.90
2019-03-28T21:59:47.339Z,77.80
2019-03-28T22:02:18.068Z,77.80
2019-03-28T22:04:48.651Z,78.50
2019-03-28T22:07:18.982Z,77.20
2019-03-28T22:09:49.523Z,76.90
2019-03-28T22:12:19.974Z,78.10
2019-03-28T22:14:50.556Z,77.30
2019-03-28T22:17:20.967Z,76.80
2019-03-28T22:19:51.819Z,77.20
2019-03-28T22:22:22.541Z,78.00
2019-03-28T22:24:53.134Z,78.40
2019-03-28T22:27:23.819Z,78.70
2019-03-28T22:29:54.345Z,79.10
2019-03-28T22:32:24.703Z,78.70
2019-03-28T22:34:55.138Z,77.90
2019-03-28T22:37:26.171Z,79.20
2019-03-28T22:39:56.587Z,79.20
2019-03-28T22:42:27.331Z,79.30
2019-03-28T22:44:58.058Z,78.70
2019-03-28T22:47:28.498Z,76.90
2019-03-28T22:49:58.921Z,76.80
2019-03-28T22:52:29.493Z,77.40
2019-03-28T22:55:00.385Z,79.60
2019-03-28T22:57:30.869Z,80.20
2019-03-28T23:00:04.143Z,80.90
2019-03-28T23:02:35.211Z,81.10
2019-03-28T23:05:06.849Z,80.50
2019-03-28T23:07:37.288Z,81.40
2019-03-28T23:10:08.831Z,81.80
2019-03-28T23:12:39.394Z,80.90
2019-03-28T23:15:11.464Z,81.40
2019-03-28T23:17:41.968Z,81.80
2019-03-28T23:20:12.792Z,83.20
2019-03-28T23:22:44.066Z,83.00
2019-03-28T23:25:14.562Z,82.70
2019-03-28T23:27:45.040Z,83.20
2019-03-28T23:30:15.639Z,82.50
2019-03-28T23:32:46.426Z,82.30
2019-03-28T23:35:16.935Z,83.40
2019-03-28T23:37:47.318Z,81.10
2019-03-28T23:40:18.052Z,81.40
2019-03-28T23:42:48.646Z,82.20
2019-03-28T23:45:19.718Z,81.90
2019-03-28T23:47:51.472Z,82.00
2019-03-28T23:50:22.326Z,82.70
2019-03-28T23:52:52.719Z,83.20
2019-03-28T23:55:23.216Z,83.80
2019-03-28T23:57:54.546Z,83.90
